Berino, New Mexico
Current Conditions -  °F | °C
As of 10:58 PM on Saturday 25 Oct 2014 (Local Time) from KBIF Reporting Station
Clear Clear  
Wind Chill: 63°   Ceiling: Unl
Heat Index: 63°   Visibility: 10mi
Dew Point: 49°   Wind: 5mph
Humidity: 61%   Direction: 110°ESE
Pressure: 30.13"   Gusts: NA
Location:  32.07°N, 106.62°W
Report Text: KBIF 260458Z AUTO 11004KT 10SM CLR 17/10 A3013 RMK AO2 SLP153 T01720096 $
Loading
Personal Weather Stations






























Interactive Weather Map
Tropical Storm Tracking
New forecast layout! Learn more

10-Day Weather Forecast

Advertisements
Track Severe Weather on mobile